Time;durP1;ratioP1;P1;durP2;ratioP2;P2;SDS_P1;SDS_P2;PMS_P1;PMS_P2;Temp;Humidity;BMP_temperature;BMP_pressure;BME280_temperature;BME280_humidity;BME280_pressure;Samples;Min_cycle;Max_cycle;Signal;HPM_P1;HPM_P2
2022/09/23 00:01:08;;;;;;;;;;;;;;;11.86;70.08;101730.63;4978416;28;19910;-60
2022/09/23 00:03:34;;;;;;;;;;;;;;;11.82;70.27;101725.31;4978279;28;19926;-60
2022/09/23 00:06:00;;;;;;;;;;;;;;;11.81;70.27;101726.13;4977669;28;19926;-60
2022/09/23 00:08:26;;;;;;;;;;;;;;;11.80;70.49;101726.09;4960547;28;19910;-60
2022/09/23 00:10:51;;;;;;;;;;;;;;;11.79;70.38;101726.94;4978137;28;19961;-60
2022/09/23 00:13:16;;;;;;;;;;;;;;;11.77;70.55;101723.38;4978939;28;19985;-60
2022/09/23 00:15:41;;;;;;;;;;;;;;;11.74;70.57;101724.16;4978332;28;19953;-61
2022/09/23 00:18:07;;;;;;;;;;;;;;;11.74;70.64;101725.88;4978074;28;19926;-58
2022/09/23 00:20:35;;;;;;;;;;;;;;;11.71;70.42;101724.06;4977333;28;19914;-58
2022/09/23 00:23:00;;;;;;;;;;;;;;;11.67;70.63;101714.34;4978502;28;19984;-58
2022/09/23 00:25:28;;;;;;;;;;;;;;;11.66;70.70;101716.06;4978506;28;20203;-58
2022/09/23 00:27:53;;;;;;;;;;;;;;;11.64;70.87;101715.16;4978798;28;19910;-58
2022/09/23 00:30:19;;;;;;;;;;;;;;;11.60;71.00;101710.66;4977622;28;19965;-58
2022/09/23 00:32:44;;;;;;;;;;;;;;;11.60;70.94;101709.75;4977284;28;20156;-58
2022/09/23 00:35:09;;;;;;;;;;;;;;;11.57;71.15;101709.66;4977622;28;19918;-58
2022/09/23 00:37:34;;;;;;;;;;;;;;;11.55;71.01;101707.00;4977151;28;19937;-58
2022/09/23 00:40:00;;;;;;;;;;;;;;;11.54;70.96;101694.78;4977866;28;19956;-58
2022/09/23 00:42:25;;;;;;;;;;;;;;;11.54;71.07;101699.13;4981296;28;19910;-58
2022/09/23 00:44:51;;;;;;;;;;;;;;;11.51;71.18;101705.13;4990415;28;19922;-58
2022/09/23 00:47:31;;;;;;;;;;;;;;;11.48;71.37;101700.72;4984472;28;19917;-60
2022/09/23 00:50:00;;;;;;;;;;;;;;;11.47;71.21;101698.94;4982007;28;20140;-60
2022/09/23 00:52:26;;;;;;;;;;;;;;;11.45;71.01;101694.47;4976751;28;19918;-60
2022/09/23 00:54:54;;;;;;;;;;;;;;;11.44;71.26;101697.91;4975921;28;19922;-60
2022/09/23 00:57:19;;;;;;;;;;;;;;;11.43;70.96;101704.00;4978708;28;19952;-60
2022/09/23 00:59:45;;;;;;;;;;;;;;;11.40;70.86;101702.16;4977800;28;20777;-60
2022/09/23 01:02:11;;;;;;;;;;;;;;;11.38;70.98;101695.97;4977017;28;19984;-60
2022/09/23 01:04:37;;;;;;;;;;;;;;;11.37;70.94;101690.72;4976961;28;19910;-60
2022/09/23 01:07:02;;;;;;;;;;;;;;;11.33;70.94;101688.88;4976519;28;19910;-60
2022/09/23 01:09:27;;;;;;;;;;;;;;;11.30;71.17;101695.72;4976686;28;19913;-60
2022/09/23 01:12:17;;;;;;;;;;;;;;;11.28;71.11;101694.81;4977954;28;20032;-60
2022/09/23 01:14:51;;;;;;;;;;;;;;;11.24;71.01;101692.91;4934086;28;19910;-60
2022/09/23 01:17:34;;;;;;;;;;;;;;;11.23;70.91;101692.88;4975932;28;20012;-60
2022/09/23 01:20:18;;;;;;;;;;;;;;;11.19;71.08;101685.75;4971731;28;19922;-60
2022/09/23 01:23:03;;;;;;;;;;;;;;;11.15;70.84;101689.97;4977463;28;19930;-60
2022/09/23 01:25:31;;;;;;;;;;;;;;;11.13;71.03;101694.25;4975060;28;19973;-60
2022/09/23 01:27:56;;;;;;;;;;;;;;;11.11;71.09;101688.13;4979363;28;20145;-60
2022/09/23 01:30:27;;;;;;;;;;;;;;;11.07;71.18;101683.63;4976822;28;19961;-60
2022/09/23 01:32:57;;;;;;;;;;;;;;;11.05;71.08;101687.88;4976659;28;20164;-60
2022/09/23 01:35:22;;;;;;;;;;;;;;;11.01;70.96;101676.47;4976672;28;19916;-60
2022/09/23 01:37:51;;;;;;;;;;;;;;;10.98;70.96;101681.59;4976435;28;19922;-60
2022/09/23 01:40:39;;;;;;;;;;;;;;;10.95;71.04;101671.91;4975984;28;19962;-60
2022/09/23 01:43:27;;;;;;;;;;;;;;;10.92;71.33;101677.03;4967910;28;19914;-60
2022/09/23 01:45:55;;;;;;;;;;;;;;;10.90;71.36;101685.63;4976655;28;20195;-60
2022/09/23 01:48:20;;;;;;;;;;;;;;;10.86;71.12;101684.66;4975653;28;19937;-60
2022/09/23 01:50:57;;;;;;;;;;;;;;;10.87;71.40;101675.09;4976971;28;19933;-60
2022/09/23 01:53:36;;;;;;;;;;;;;;;10.83;71.02;101676.69;4973612;28;20065;-60
2022/09/23 01:56:04;;;;;;;;;;;;;;;10.79;71.57;101674.81;4976086;28;19936;-60
2022/09/23 01:58:34;;;;;;;;;;;;;;;10.75;72.01;101673.81;4976793;28;19929;-60
2022/09/23 02:01:00;;;;;;;;;;;;;;;10.72;72.04;101678.03;4959934;28;19922;-60
2022/09/23 02:03:49;;;;;;;;;;;;;;;10.71;71.91;101671.03;4976400;28;20192;-60
2022/09/23 02:06:24;;;;;;;;;;;;;;;10.69;72.06;101673.59;4975834;28;19917;-60
2022/09/23 02:08:55;;;;;;;;;;;;;;;10.68;71.95;101670.94;4976473;28;19929;-60
2022/09/23 02:11:20;;;;;;;;;;;;;;;10.68;72.07;101676.16;4976196;28;19921;-60
2022/09/23 02:13:49;;;;;;;;;;;;;;;10.65;72.25;101671.72;4976540;28;19924;-60
2022/09/23 02:16:23;;;;;;;;;;;;;;;10.64;72.18;101669.91;4975521;28;20149;-58
2022/09/23 02:18:52;;;;;;;;;;;;;;;10.63;72.14;101669.88;4973849;28;19910;-58
2022/09/23 02:21:19;;;;;;;;;;;;;;;10.63;72.10;101664.66;4973598;28;20088;-58
2022/09/23 02:23:50;;;;;;;;;;;;;;;10.61;72.06;101662.88;4974476;28;19930;-58
2022/09/23 02:26:30;;;;;;;;;;;;;;;10.59;72.35;101661.94;4973218;28;20185;-58
2022/09/23 02:28:56;;;;;;;;;;;;;;;10.59;72.38;101655.84;4977453;28;19926;-58
2022/09/23 02:31:29;;;;;;;;;;;;;;;10.57;72.46;101649.69;4975530;28;20261;-58
2022/09/23 02:33:58;;;;;;;;;;;;;;;10.55;72.53;101654.84;4978343;28;19957;-58
2022/09/23 02:36:26;;;;;;;;;;;;;;;10.53;72.92;101643.47;4976541;28;19925;-58
2022/09/23 02:38:56;;;;;;;;;;;;;;;10.52;72.80;101648.63;4975635;28;19936;-58
2022/09/23 02:41:25;;;;;;;;;;;;;;;10.48;72.63;101637.19;4978817;28;20107;-58
2022/09/23 02:43:53;;;;;;;;;;;;;;;10.49;72.68;101639.00;4979525;28;19930;-58
2022/09/23 02:46:19;;;;;;;;;;;;;;;10.48;72.77;101632.00;4979981;28;19917;-60
2022/09/23 02:48:48;;;;;;;;;;;;;;;10.47;72.91;101638.06;4981028;28;19910;-60
2022/09/23 02:51:13;;;;;;;;;;;;;;;10.46;72.63;101628.47;4985850;28;20037;-60
2022/09/23 02:53:39;;;;;;;;;;;;;;;10.44;72.81;101631.00;4983173;28;20198;-60
2022/09/23 02:56:14;;;;;;;;;;;;;;;10.42;72.58;101627.44;4980614;28;19917;-60
2022/09/23 02:58:39;;;;;;;;;;;;;;;10.41;72.63;101622.16;4982982;28;19957;-59
2022/09/23 03:01:10;;;;;;;;;;;;;;;10.39;72.81;101616.03;4988422;28;19910;-60
2022/09/23 03:03:45;;;;;;;;;;;;;;;10.36;72.67;101616.81;4990300;28;19910;-60
2022/09/23 03:06:19;;;;;;;;;;;;;;;10.36;72.68;101615.94;4984146;28;19910;-60
2022/09/23 03:08:53;;;;;;;;;;;;;;;10.34;72.58;101618.47;4988144;28;19910;-60
2022/09/23 03:11:19;;;;;;;;;;;;;;;10.32;72.89;101614.88;4984450;28;19917;-60
2022/09/23 03:13:47;;;;;;;;;;;;;;;10.31;72.75;101613.13;4986652;28;19910;-60
2022/09/23 03:16:12;;;;;;;;;;;;;;;10.30;72.63;101613.03;4982662;28;19910;-60
2022/09/23 03:18:40;;;;;;;;;;;;;;;10.27;72.73;101608.63;4978932;28;20064;-60
2022/09/23 03:21:08;;;;;;;;;;;;;;;10.24;72.90;101606.78;4987332;28;19914;-60
2022/09/23 03:23:35;;;;;;;;;;;;;;;10.22;73.06;101608.44;4983583;28;19910;-60
2022/09/23 03:26:11;;;;;;;;;;;;;;;10.22;73.09;101602.34;4986899;28;19921;-60
2022/09/23 03:28:37;;;;;;;;;;;;;;;10.18;72.75;101606.56;4985439;28;19930;-60
2022/09/23 03:31:02;;;;;;;;;;;;;;;10.18;72.81;101609.16;4990263;28;20172;-60
2022/09/23 03:33:29;;;;;;;;;;;;;;;10.15;72.68;101603.81;4991818;28;20092;-60
2022/09/23 03:38:53;;;;;;;;;;;;;;;10.10;72.77;101603.66;4986008;28;20155;-60
2022/09/23 03:41:28;;;;;;;;;;;;;;;10.09;72.69;101603.59;4996413;28;19913;-60
2022/09/23 03:43:56;;;;;;;;;;;;;;;10.06;72.71;101603.50;4990967;28;19936;-61
2022/09/23 03:46:23;;;;;;;;;;;;;;;10.06;72.68;101600.88;4990164;28;19910;-60
2022/09/23 03:48:48;;;;;;;;;;;;;;;10.04;72.93;101599.94;4994854;28;19916;-60
2022/09/23 03:51:19;;;;;;;;;;;;;;;10.03;72.83;101603.38;4982254;28;19938;-60
2022/09/23 03:53:44;;;;;;;;;;;;;;;9.99;72.59;101589.34;4981332;28;19945;-60
2022/09/23 03:56:10;;;;;;;;;;;;;;;9.98;72.63;101589.28;4983857;28;20041;-60
2022/09/23 03:58:35;;;;;;;;;;;;;;;9.97;72.62;101592.72;4997899;28;19914;-60
2022/09/23 04:01:01;;;;;;;;;;;;;;;9.95;72.82;101591.78;4982443;28;19918;-60
2022/09/23 04:03:28;;;;;;;;;;;;;;;9.93;72.73;101596.91;4985864;28;19916;-60
2022/09/23 04:05:53;;;;;;;;;;;;;;;9.90;73.02;101589.88;4987406;28;19917;-60
2022/09/23 04:08:18;;;;;;;;;;;;;;;9.90;72.79;101589.00;4984123;28;19910;-60
2022/09/23 04:10:43;;;;;;;;;;;;;;;9.88;73.05;101586.34;4983651;28;19930;-60
2022/09/23 04:13:08;;;;;;;;;;;;;;;9.87;73.11;101586.28;4987541;28;19910;-60
2022/09/23 04:15:33;;;;;;;;;;;;;;;9.85;73.03;101585.34;4984396;28;19917;-60
2022/09/23 04:17:58;;;;;;;;;;;;;;;9.83;73.09;101587.84;4989803;28;20137;-60
2022/09/23 04:20:28;;;;;;;;;;;;;;;9.83;72.96;101586.97;4983877;28;19985;-60
2022/09/23 04:22:54;;;;;;;;;;;;;;;9.82;73.18;101583.50;4984118;28;20141;-60
2022/09/23 04:25:20;;;;;;;;;;;;;;;9.81;72.96;101583.44;4991453;28;19917;-60
2022/09/23 04:27:45;;;;;;;;;;;;;;;9.80;73.20;101584.28;4988503;28;19930;-60
2022/09/23 04:30:10;;;;;;;;;;;;;;;9.79;73.19;101587.69;4985833;28;19952;-60
2022/09/23 04:32:36;;;;;;;;;;;;;;;9.78;73.42;101594.63;4985048;28;19910;-60
2022/09/23 04:35:02;;;;;;;;;;;;;;;9.78;73.38;101591.16;4982737;28;19921;-60
2022/09/23 04:37:28;;;;;;;;;;;;;;;9.77;73.42;101582.44;4996628;28;20148;-60
2022/09/23 04:39:54;;;;;;;;;;;;;;;9.77;73.40;101585.03;4981634;28;20017;-60
2022/09/23 04:42:19;;;;;;;;;;;;;;;9.75;73.64;101584.97;4966967;28;19933;-60
2022/09/23 04:44:44;;;;;;;;;;;;;;;9.74;73.66;101577.97;4977157;28;19981;-60
2022/09/23 04:47:09;;;;;;;;;;;;;;;9.73;73.48;101575.31;4984958;28;19909;-60
2022/09/23 04:49:34;;;;;;;;;;;;;;;9.72;73.49;101576.19;4989575;28;19906;-60
2022/09/23 04:52:00;;;;;;;;;;;;;;;9.71;73.59;101577.88;4993625;28;19969;-60
2022/09/23 04:54:26;;;;;;;;;;;;;;;9.71;73.83;101582.19;5001181;28;19905;-60
2022/09/23 04:56:51;;;;;;;;;;;;;;;9.70;73.59;101576.13;5003963;28;20041;-61
2022/09/23 04:59:16;;;;;;;;;;;;;;;9.71;73.76;101574.38;4991900;28;19914;-60
2022/09/23 05:01:42;;;;;;;;;;;;;;;9.69;73.82;101569.13;4980821;28;19933;-60
2022/09/23 05:04:12;;;;;;;;;;;;;;;9.69;73.83;101568.22;4977294;28;19930;-60
2022/09/23 05:06:37;;;;;;;;;;;;;;;9.69;73.96;101568.22;4976319;28;20128;-60
2022/09/23 05:09:04;;;;;;;;;;;;;;;9.68;74.14;101569.06;4977511;28;19922;-60
2022/09/23 05:11:30;;;;;;;;;;;;;;;9.67;74.37;101565.56;4976847;28;19930;-60
2022/09/23 05:13:56;;;;;;;;;;;;;;;9.67;74.19;101575.09;4977555;28;19933;-60
2022/09/23 05:16:22;;;;;;;;;;;;;;;9.67;74.16;101565.56;4959012;28;20119;-61
2022/09/23 05:18:47;;;;;;;;;;;;;;;9.66;74.60;101569.00;4976458;28;19933;-60
2022/09/23 05:21:14;;;;;;;;;;;;;;;9.65;74.49;101569.84;4976341;28;20109;-60
2022/09/23 05:23:41;;;;;;;;;;;;;;;9.66;74.46;101575.91;4977012;28;20095;-60
2022/09/23 05:26:07;;;;;;;;;;;;;;;9.65;74.68;101572.44;4979205;28;19910;-60
2022/09/23 05:28:33;;;;;;;;;;;;;;;9.66;74.83;101575.91;4985497;28;19906;-60
2022/09/23 05:31:13;;;;;;;;;;;;;;;9.65;74.74;101577.63;4995428;28;19910;-60
2022/09/23 05:33:39;;;;;;;;;;;;;;;9.66;74.95;101578.50;4972607;28;19927;-60
2022/09/23 05:36:04;;;;;;;;;;;;;;;9.64;75.11;101586.25;4976232;28;19953;-60
2022/09/23 05:38:30;;;;;;;;;;;;;;;9.64;75.04;101585.38;4975501;28;19910;-60
2022/09/23 05:41:03;;;;;;;;;;;;;;;9.63;75.15;101589.72;4976746;28;20270;-60
2022/09/23 05:43:29;;;;;;;;;;;;;;;9.63;75.46;101587.13;4979751;28;19929;-59
2022/09/23 05:46:00;;;;;;;;;;;;;;;9.62;75.56;101584.44;4980884;28;19922;-60
2022/09/23 05:48:25;;;;;;;;;;;;;;;9.61;75.70;101591.34;4985507;28;19929;-60
2022/09/23 05:50:52;;;;;;;;;;;;;;;9.61;75.72;101593.06;4982448;28;19925;-60
2022/09/23 05:53:18;;;;;;;;;;;;;;;9.60;75.63;101584.38;4981469;28;19914;-60
2022/09/23 05:55:44;;;;;;;;;;;;;;;9.61;75.84;101591.34;4963068;28;19977;-60
2022/09/23 05:58:09;;;;;;;;;;;;;;;9.61;75.80;101591.34;4988711;28;19981;-60
2022/09/23 06:00:34;;;;;;;;;;;;;;;9.62;75.66;101597.47;4987259;28;19933;-60
2022/09/23 06:03:00;;;;;;;;;;;;;;;9.63;75.90;101599.22;5003597;28;19906;-60
2022/09/23 06:05:25;;;;;;;;;;;;;;;9.62;75.94;101598.34;4992104;28;19937;-60
2022/09/23 06:07:50;;;;;;;;;;;;;;;9.63;76.22;101589.72;4994883;28;19912;-60
2022/09/23 06:10:15;;;;;;;;;;;;;;;9.63;76.35;101591.41;4987427;28;20025;-60
2022/09/23 06:12:43;;;;;;;;;;;;;;;9.63;76.39;101588.81;4984049;28;19910;-61
2022/09/23 06:15:08;;;;;;;;;;;;;;;9.63;76.66;101587.13;4982940;28;20083;-60
2022/09/23 06:17:33;;;;;;;;;;;;;;;9.63;76.69;101583.59;4985237;28;19926;-58
2022/09/23 06:19:59;;;;;;;;;;;;;;;9.65;76.91;101581.97;4982475;28;19949;-58
2022/09/23 06:22:24;;;;;;;;;;;;;;;9.64;76.66;101585.38;4982914;28;19917;-58
2022/09/23 06:24:50;;;;;;;;;;;;;;;9.67;76.86;101582.91;4988421;28;20119;-58
2022/09/23 06:27:15;;;;;;;;;;;;;;;9.67;77.02;101581.19;4987742;28;19910;-58
2022/09/23 06:29:40;;;;;;;;;;;;;;;9.68;77.33;101577.75;4982517;28;19946;-58
2022/09/23 06:32:06;;;;;;;;;;;;;;;9.70;77.36;101583.94;4982618;28;19909;-58
2022/09/23 06:34:31;;;;;;;;;;;;;;;9.70;77.71;101576.13;4988786;28;20138;-59
2022/09/23 06:36:56;;;;;;;;;;;;;;;9.71;77.83;101575.25;4983814;28;20156;-58
2022/09/23 06:39:22;;;;;;;;;;;;;;;9.74;77.56;101574.50;4981817;28;20054;-59
2022/09/23 06:41:47;;;;;;;;;;;;;;;9.74;77.74;101575.38;4987780;28;19921;-57
2022/09/23 06:44:13;;;;;;;;;;;;;;;9.76;77.96;101575.44;4985510;28;19944;-57
2022/09/23 06:46:38;;;;;;;;;;;;;;;9.79;77.95;101580.78;4992098;28;19965;-60
2022/09/23 06:49:03;;;;;;;;;;;;;;;9.81;78.13;101578.25;4984512;28;20155;-60
2022/09/23 06:51:29;;;;;;;;;;;;;;;9.82;78.24;101574.78;4998282;28;19914;-59
2022/09/23 06:53:54;;;;;;;;;;;;;;;9.84;78.32;101579.22;4991850;28;20156;-60
2022/09/23 06:56:20;;;;;;;;;;;;;;;9.87;78.27;101583.69;4987152;28;20208;-59
2022/09/23 06:58:46;;;;;;;;;;;;;;;9.89;78.24;101580.31;4985350;28;19910;-60
2022/09/23 07:01:14;;;;;;;;;;;;;;;9.91;78.35;101576.03;4990813;28;19940;-60
2022/09/23 07:03:40;;;;;;;;;;;;;;;9.95;78.36;101573.53;4982248;28;20751;-60
2022/09/23 07:06:05;;;;;;;;;;;;;;;9.96;78.71;101581.41;4989610;28;19925;-60
2022/09/23 07:08:34;;;;;;;;;;;;;;;9.99;78.73;101580.66;4984604;28;19980;-60
2022/09/23 07:11:01;;;;;;;;;;;;;;;10.02;78.94;101580.75;4981019;28;19925;-60
2022/09/23 07:13:26;;;;;;;;;;;;;;;10.03;79.10;101575.59;4981845;28;19969;-60
2022/09/23 07:15:52;;;;;;;;;;;;;;;10.05;79.06;101573.06;4979553;28;19929;-60
2022/09/23 07:18:18;;;;;;;;;;;;;;;10.07;79.09;101574.91;4982231;28;19976;-60
2022/09/23 07:20:45;;;;;;;;;;;;;;;10.09;78.93;101575.88;4984676;28;19917;-60
2022/09/23 07:23:10;;;;;;;;;;;;;;;10.13;79.11;101578.56;4994553;28;19909;-60
2022/09/23 07:25:35;;;;;;;;;;;;;;;10.16;79.16;101570.88;4993766;28;19926;-60
2022/09/23 07:28:00;;;;;;;;;;;;;;;10.19;79.49;101577.06;4983182;28;19929;-59
2022/09/23 07:30:26;;;;;;;;;;;;;;;10.23;79.33;101575.47;4980322;28;20077;-60
2022/09/23 07:32:51;;;;;;;;;;;;;;;10.26;79.41;101575.59;4987074;28;19930;-60
2022/09/23 07:35:17;;;;;;;;;;;;;;;10.29;79.65;101574.81;4987289;28;19981;-60
2022/09/23 07:37:42;;;;;;;;;;;;;;;10.34;79.72;101575.88;4993227;28;19918;-60
2022/09/23 07:40:08;;;;;;;;;;;;;;;10.37;79.62;101576.00;4992534;28;19932;-60
2022/09/23 07:42:33;;;;;;;;;;;;;;;10.39;79.50;101575.22;4989824;28;20060;-60
2022/09/23 07:44:58;;;;;;;;;;;;;;;10.43;79.23;101568.44;4984071;28;19969;-60
2022/09/23 07:47:23;;;;;;;;;;;;;;;10.47;79.12;101572.00;4983285;28;19926;-60
2022/09/23 07:49:49;;;;;;;;;;;;;;;10.50;78.96;101575.63;4979863;28;20062;-60
2022/09/23 07:52:14;;;;;;;;;;;;;;;10.54;78.84;101569.69;4978688;28;20141;-60
2022/09/23 07:54:39;;;;;;;;;;;;;;;10.59;79.25;101577.66;4989559;28;19922;-61
2022/09/23 07:57:04;;;;;;;;;;;;;;;10.64;79.63;101578.69;4986070;28;19955;-60
2022/09/23 07:59:30;;;;;;;;;;;;;;;10.68;79.30;101572.78;4986382;28;19949;-61
2022/09/23 08:01:56;;;;;;;;;;;;;;;10.71;79.52;101572.88;4983488;28;19977;-60
2022/09/23 08:04:27;;;;;;;;;;;;;;;10.76;79.36;101570.41;4986213;28;20152;-61
2022/09/23 08:06:53;;;;;;;;;;;;;;;10.79;79.05;101575.75;4986537;28;19912;-60
2022/09/23 08:09:20;;;;;;;;;;;;;;;10.84;79.15;101584.63;4989462;28;19932;-61
2022/09/23 08:11:45;;;;;;;;;;;;;;;10.89;79.31;101574.34;4985492;28;19906;-60
2022/09/23 08:14:12;;;;;;;;;;;;;;;10.92;78.93;101575.34;4990758;28;19966;-60
2022/09/23 08:16:38;;;;;;;;;;;;;;;10.98;79.23;101581.59;4992318;28;19914;-59
2022/09/23 08:19:03;;;;;;;;;;;;;;;11.03;78.60;101578.28;4984764;28;19929;-59
2022/09/23 08:21:29;;;;;;;;;;;;;;;11.07;78.66;101588.00;4985018;28;19958;-59
2022/09/23 08:23:54;;;;;;;;;;;;;;;11.11;78.94;101579.44;4979921;28;19922;-59
2022/09/23 08:26:19;;;;;;;;;;;;;;;11.16;78.88;101574.38;4973987;28;19944;-59
2022/09/23 08:28:46;;;;;;;;;;;;;;;11.21;78.97;101579.75;4979551;28;19918;-58
2022/09/23 08:31:13;;;;;;;;;;;;;;;11.24;78.93;101575.53;4983076;28;19984;-57
2022/09/23 08:33:38;;;;;;;;;;;;;;;11.29;78.91;101586.97;4989144;28;20116;-58
2022/09/23 08:36:04;;;;;;;;;;;;;;;11.34;78.66;101583.63;4986527;28;19906;-57
2022/09/23 08:38:29;;;;;;;;;;;;;;;11.39;78.84;101582.06;4990247;28;20053;-57
2022/09/23 08:41:01;;;;;;;;;;;;;;;11.41;78.83;101578.69;4997008;28;19961;-58
2022/09/23 08:43:31;;;;;;;;;;;;;;;11.46;79.20;101579.69;4987499;28;19985;-58
2022/09/23 08:45:59;;;;;;;;;;;;;;;11.51;79.24;101582.44;4990092;28;19949;-58
2022/09/23 08:48:28;;;;;;;;;;;;;;;11.57;78.72;101585.28;5002852;28;20152;-58
2022/09/23 08:50:57;;;;;;;;;;;;;;;11.62;78.91;101581.06;5000988;28;20160;-58
2022/09/23 08:53:24;;;;;;;;;;;;;;;11.69;78.65;101573.41;4985478;28;19917;-57
2022/09/23 08:55:51;;;;;;;;;;;;;;;11.75;78.43;101568.41;4990595;28;20061;-58
2022/09/23 08:58:35;;;;;;;;;;;;;;;11.79;78.32;101571.16;4995465;28;20164;-58
2022/09/23 09:01:18;;;;;;;;;;;;;;;11.88;77.79;101569.66;4988786;28;20063;-58
2022/09/23 09:03:54;;;;;;;;;;;;;;;11.94;77.66;101573.38;4986331;28;20001;-58
2022/09/23 09:06:29;;;;;;;;;;;;;;;12.00;77.90;101576.16;4993728;28;19913;-58
2022/09/23 09:08:57;;;;;;;;;;;;;;;12.06;77.55;101566.72;5003923;28;19921;-58
2022/09/23 09:11:26;;;;;;;;;;;;;;;12.12;77.62;101569.50;4986189;28;21782;-58
2022/09/23 09:14:10;;;;;;;;;;;;;;;12.19;77.72;101566.25;4995344;28;20137;-58
2022/09/23 09:16:53;;;;;;;;;;;;;;;12.27;77.96;101558.63;4991243;28;19986;-58
2022/09/23 09:19:20;;;;;;;;;;;;;;;12.34;77.67;101566.69;4996158;28;19933;-57
2022/09/23 09:21:46;;;;;;;;;;;;;;;12.41;77.21;101562.53;4995492;28;20152;-58
2022/09/23 09:24:25;;;;;;;;;;;;;;;12.48;77.02;101561.84;4999131;28;20029;-58
2022/09/23 09:26:51;;;;;;;;;;;;;;;12.55;76.70;101564.63;4979097;28;20337;-58
2022/09/23 09:29:19;;;;;;;;;;;;;;;12.61;76.69;101563.03;4986086;28;20084;-57
2022/09/23 09:31:46;;;;;;;;;;;;;;;12.68;76.65;101562.34;4983505;28;19910;-58
2022/09/23 09:34:15;;;;;;;;;;;;;;;12.75;76.50;101560.81;4988583;28;19922;-58
2022/09/23 09:36:48;;;;;;;;;;;;;;;12.81;76.24;101555.72;4991306;28;19914;-58
2022/09/23 09:39:13;;;;;;;;;;;;;;;12.89;75.85;101555.94;4987361;28;19906;-58
2022/09/23 09:41:46;;;;;;;;;;;;;;;12.93;75.65;101552.53;4998375;28;19916;-58
2022/09/23 09:44:35;;;;;;;;;;;;;;;12.99;75.65;101547.47;4990703;28;19929;-58
2022/09/23 09:47:13;;;;;;;;;;;;;;;13.09;75.32;101558.16;4972941;28;19910;-58
2022/09/23 09:49:41;;;;;;;;;;;;;;;13.17;74.94;101546.16;4994249;28;19910;-58
2022/09/23 09:52:18;;;;;;;;;;;;;;;13.20;74.74;101549.72;4997609;28;20200;-59
2022/09/23 09:54:43;;;;;;;;;;;;;;;13.27;74.73;101552.50;4978730;28;19941;-59
2022/09/23 09:57:30;;;;;;;;;;;;;;;13.35;74.64;101545.72;4978513;28;19918;-60
2022/09/23 09:59:55;;;;;;;;;;;;;;;13.44;74.06;101539.81;4978652;28;19981;-61
2022/09/23 10:02:20;;;;;;;;;;;;;;;13.50;74.03;101543.47;4986207;28;19921;-61
2022/09/23 10:04:52;;;;;;;;;;;;;;;13.56;73.86;101546.22;4982146;28;19922;-61
2022/09/23 10:07:23;;;;;;;;;;;;;;;13.65;73.83;101547.28;4980278;28;19988;-61
2022/09/23 10:09:49;;;;;;;;;;;;;;;13.73;73.48;101543.97;4975930;28;19925;-61
2022/09/23 10:12:18;;;;;;;;;;;;;;;13.83;72.68;101542.47;4977211;28;20112;-61
2022/09/23 10:14:45;;;;;;;;;;;;;;;13.91;72.62;101532.13;4978761;28;19933;-61
2022/09/23 10:17:17;;;;;;;;;;;;;;;13.99;72.73;101524.41;4977278;28;19981;-61
2022/09/23 10:19:44;;;;;;;;;;;;;;;14.06;72.12;101537.69;4975512;28;20011;-61
2022/09/23 10:22:17;;;;;;;;;;;;;;;14.12;71.81;101523.84;4976224;28;19910;-61
2022/09/23 10:24:46;;;;;;;;;;;;;;;14.19;71.66;101530.06;4977569;28;19910;-61
2022/09/23 10:27:11;;;;;;;;;;;;;;;14.25;71.30;101524.94;4976993;28;19918;-61
2022/09/23 10:29:37;;;;;;;;;;;;;;;14.32;71.15;101518.94;4974154;28;19971;-61
2022/09/23 10:32:17;;;;;;;;;;;;;;;14.40;71.50;101521.75;4977512;28;20069;-61
2022/09/23 10:34:45;;;;;;;;;;;;;;;14.46;71.43;101515.72;4975048;28;19929;-61
2022/09/23 10:37:14;;;;;;;;;;;;;;;14.52;71.01;101516.72;4976451;28;19918;-61
2022/09/23 10:48:39;;;;;;;;;;;;;;;14.78;70.87;101525.06;4951016;28;19910;-61
2022/09/23 10:51:19;;;;;;;;;;;;;;;14.83;70.61;101525.16;4975519;28;19914;-61
2022/09/23 10:53:52;;;;;;;;;;;;;;;14.90;71.26;101528.75;4982829;28;20246;-61
2022/09/23 10:56:32;;;;;;;;;;;;;;;14.94;69.93;101525.34;4982516;28;20169;-61
2022/09/23 10:58:57;;;;;;;;;;;;;;;14.98;69.71;101523.66;4981069;28;19926;-61
2022/09/23 11:01:28;;;;;;;;;;;;;;;15.00;69.98;101516.69;4989799;28;19953;-61
2022/09/23 11:04:00;;;;;;;;;;;;;;;15.04;70.17;101521.13;4989566;28;19956;-61
2022/09/23 11:06:34;;;;;;;;;;;;;;;15.07;69.90;101516.78;4982019;28;20112;-61
2022/09/23 11:09:14;;;;;;;;;;;;;;;15.11;69.30;101513.38;4974135;28;19922;-61
2022/09/23 11:11:45;;;;;;;;;;;;;;;15.17;68.76;101516.97;4978019;28;19956;-61
2022/09/23 11:14:15;;;;;;;;;;;;;;;15.22;69.27;101515.28;4973030;28;19998;-61
2022/09/23 11:16:40;;;;;;;;;;;;;;;15.26;68.67;101511.84;4977236;28;20072;-61
2022/09/23 11:19:22;;;;;;;;;;;;;;;15.28;69.31;101513.63;4974873;28;20184;-61
2022/09/23 11:22:07;;;;;;;;;;;;;;;15.35;69.36;101508.47;4979493;28;19936;-61
2022/09/23 11:24:32;;;;;;;;;;;;;;;15.40;69.41;101505.03;4981726;28;20068;-61
2022/09/23 11:26:58;;;;;;;;;;;;;;;15.45;69.50;101503.38;4987159;28;19917;-61
2022/09/23 11:29:26;;;;;;;;;;;;;;;15.51;67.45;101504.31;4989171;28;19907;-61
2022/09/23 11:31:57;;;;;;;;;;;;;;;15.57;67.23;101501.75;4996802;28;19906;-61
2022/09/23 11:34:41;;;;;;;;;;;;;;;15.60;67.47;101507.09;4992011;28;19922;-61
2022/09/23 11:37:14;;;;;;;;;;;;;;;15.62;67.47;101500.09;4993216;28;19952;-61
2022/09/23 11:39:51;;;;;;;;;;;;;;;15.66;67.73;101509.78;4991822;28;19913;-61
2022/09/23 11:42:21;;;;;;;;;;;;;;;15.69;67.85;101498.44;4994942;28;20132;-61
2022/09/23 11:44:52;;;;;;;;;;;;;;;15.73;68.14;101490.59;4990204;28;19910;-61
2022/09/23 11:47:23;;;;;;;;;;;;;;;15.76;67.57;101485.38;4973544;28;19914;-61
2022/09/23 11:49:52;;;;;;;;;;;;;;;15.81;67.38;101485.47;4972178;28;19929;-61
2022/09/23 11:52:20;;;;;;;;;;;;;;;15.83;67.39;101483.75;4975601;28;19994;-61
2022/09/23 11:54:45;;;;;;;;;;;;;;;15.87;67.58;101476.78;4976239;28;20097;-60
2022/09/23 11:57:18;;;;;;;;;;;;;;;15.91;67.16;101478.59;4973603;28;19918;-61
2022/09/23 11:59:53;;;;;;;;;;;;;;;15.97;66.99;101478.66;4973871;28;19922;-61
2022/09/23 12:02:38;;;;;;;;;;;;;;;16.02;66.09;101484.84;4970236;28;19982;-61
2022/09/23 12:05:09;;;;;;;;;;;;;;;16.08;66.01;101479.66;4972739;28;19981;-61
2022/09/23 12:07:53;;;;;;;;;;;;;;;16.13;64.55;101471.81;4973086;28;20022;-61
2022/09/23 12:10:20;;;;;;;;;;;;;;;16.20;64.65;101478.91;4970831;28;19917;-61
2022/09/23 12:12:52;;;;;;;;;;;;;;;16.25;63.60;101477.22;4972785;28;19937;-60
2022/09/23 12:15:44;;;;;;;;;;;;;;;16.26;64.32;101468.44;4970933;28;20105;-61
2022/09/23 12:18:27;;;;;;;;;;;;;;;16.29;64.37;101478.13;4947784;28;19988;-60
2022/09/23 12:20:57;;;;;;;;;;;;;;;16.31;64.64;101468.50;4970077;28;19922;-61
2022/09/23 12:23:26;;;;;;;;;;;;;;;16.32;64.56;101470.25;4973397;28;19952;-60
2022/09/23 12:25:52;;;;;;;;;;;;;;;16.34;65.60;101471.16;4975217;28;19945;-61
2022/09/23 12:28:22;;;;;;;;;;;;;;;16.36;65.04;101471.19;4955557;28;19917;-59
2022/09/23 12:30:48;;;;;;;;;;;;;;;16.37;65.06;101468.56;4978387;28;19937;-59
2022/09/23 12:33:21;;;;;;;;;;;;;;;16.39;65.17;101469.44;4982378;28;19918;-59
2022/09/23 12:35:47;;;;;;;;;;;;;;;16.41;65.06;101470.38;4993335;28;19910;-59
2022/09/23 12:38:32;;;;;;;;;;;;;;;16.42;63.52;101464.22;4991659;28;19961;-59
2022/09/23 12:40:58;;;;;;;;;;;;;;;16.44;64.47;101464.25;4976809;28;19917;-59
2022/09/23 12:43:31;;;;;;;;;;;;;;;16.46;64.64;101460.75;4984202;28;19961;-58
2022/09/23 12:46:16;;;;;;;;;;;;;;;16.48;64.77;101463.38;4973111;28;19953;-59
2022/09/23 12:48:45;;;;;;;;;;;;;;;16.51;65.07;101466.94;4984833;28;20004;-59
2022/09/23 12:51:15;;;;;;;;;;;;;;;16.51;63.71;101458.16;4982968;28;19909;-59
2022/09/23 12:53:48;;;;;;;;;;;;;;;16.51;64.11;101461.69;4985756;28;19918;-60
2022/09/23 12:56:16;;;;;;;;;;;;;;;16.54;63.90;101458.22;4974442;28;19933;-60
2022/09/23 12:58:41;;;;;;;;;;;;;;;16.56;64.55;101451.19;4960655;28;19922;-60
2022/09/23 13:01:07;;;;;;;;;;;;;;;16.58;64.36;101456.47;4967164;28;19930;-59